Fortunate — 3FLG6 — position and weather

sailwx.info

Track history (hours):
 
Tides and Currents Weather Stations Pressure Air Temp Water Temp Dewpoint Dewpoint Depression Visibility Wind Speed Wind Dir Waves Ship Positions

Fortunate

Last reported at 2016-Aug-27 04:33 UTC. Time now 2016-Aug-27 06:25 UTC.
Position N 36°26' W 002°16'.

Length 275 m; draft 11.7 m.

Type: Ship (hazmat cat A). MMSI: 356708000.

Date/timePositionNaut miles runAvg speedWind from/ knotsBaromVisibWave heightAir tempDewpointWater temp
2016-Aug-27 04:33N 36°26' W 002°16'2017.9
2016-Aug-27 03:24N 36°37' W 001°55'3317.6
2016-Aug-27 01:33N 36°59' W 001°24'3817.6
2016-Aug-26 23:25N 37°23' W 000°49'1517.7
2016-Aug-26 22:33N 37°34' W 000°35'5617.1
2016-Aug-26 19:18N 38°20' E 000°04'1316.9
2016-Aug-26 18:33N 38°31' E 000°13'1717.1
2016-Aug-26 17:33N 38°45' E 000°25'1716.8
2016-Aug-26 16:31N 38°59' E 000°11'3216.3
2016-Aug-26 14:33N 39°24' W 000°14'5 4.7
2016-Aug-26 13:32N 39°26' W 000°19'0 0.0
2016-Aug-26 12:32N 39°26' W 000°19'0 0.0
2016-Aug-26 11:32N 39°26' W 000°19'0 0.0
2016-Aug-26 10:32N 39°26' W 000°19'0 0.0
2016-Aug-26 09:32N 39°26' W 000°19'0 0.0
2016-Aug-26 08:32N 39°26' W 000°19'0 0.0
2016-Aug-26 07:32N 39°26' W 000°19'0 0.0
2016-Aug-26 06:32N 39°26' W 000°19'0 0.0
2016-Aug-26 03:26N 39°26' W 000°19'0 0.0
2016-Aug-26 02:32N 39°26' W 000°19'0 0.0
2016-Aug-26 01:32N 39°26' W 000°19'0 0.0
2016-Aug-26 00:32N 39°26' W 000°19'0 0.0
2016-Aug-25 23:29N 39°26' W 000°19'0 0.0
2016-Aug-25 22:14N 39°26' W 000°19'0 0.0
2016-Aug-25 20:32N 39°26' W 000°19'0 0.0
2016-Aug-25 17:32N 39°26' W 000°19'0 0.0
2016-Aug-25 16:29N 39°26' W 000°19'0 0.0
2016-Aug-25 15:32N 39°26' W 000°19'0 0.1
2016-Aug-25 14:33N 39°26' W 000°19'5 5.1
2016-Aug-25 13:33N 39°24' W 000°13'5317.6
2016-Aug-25 10:32N 39°17' E 000°55'1717.7
2016-Aug-25 09:33N 39°15' E 001°17'1817.7
2016-Aug-25 08:33N 39°12' E 001°40'1818.1
2016-Aug-25 07:33N 39°10' E 002°03'1818.0
2016-Aug-25 06:33N 39°07' E 002°26'3617.8
2016-Aug-25 04:33N 39°03' E 003°11'1818.0
2016-Aug-25 03:33N 39°01' E 003°34'1817.9
2016-Aug-25 02:33N 38°59' E 003°57'1818.1
2016-Aug-25 01:33N 38°57' E 004°20'2017.8
2016-Aug-25 00:27N 38°55' E 004°46'1717.9
2016-Aug-24 23:30N 38°54' E 005°07'1617.5
2016-Aug-24 22:33N 38°52' E 005°28'16017.7
2016-Aug-24 13:29N 38°47' E 008°54'1718.2
2016-Aug-24 12:33N 38°50' E 009°15'24013.4
2016-Aug-23 18:33N 40°34' E 013°57'1817.7
2016-Aug-23 17:34N 40°45' E 014°15'6 5.6
2016-Aug-23 16:32N 40°50' E 014°17'0 0.0
2016-Aug-23 12:23N 40°50' E 014°17'0 0.0
2016-Aug-23 07:23N 40°50' E 014°17'0 0.0
2016-Aug-23 05:29N 40°50' E 014°17'0 0.0
2016-Aug-23 03:17N 40°50' E 014°17'0 0.0
2016-Aug-23 01:17N 40°50' E 014°17'0 0.0
2016-Aug-23 00:29N 40°50' E 014°17'0 0.0
2016-Aug-22 23:29N 40°50' E 014°17'0 0.0
2016-Aug-22 22:29N 40°50' E 014°17'0 0.0
2016-Aug-22 21:29N 40°50' E 014°17'0 0.0
2016-Aug-22 20:10N 40°50' E 014°17'2 2.8
2016-Aug-22 19:34N 40°49' E 014°18'2 1.9
2016-Aug-22 18:33N 40°47' E 014°17'3 2.6
2016-Aug-22 17:34N 40°45' E 014°15'1110.8
2016-Aug-22 16:34N 40°35' E 014°08'1212.4
2016-Aug-22 15:34N 40°24' E 014°13'10013.7
2016-Aug-22 08:17N 38°56' E 015°16'1114.5
2016-Aug-22 07:32N 38°47' E 015°23'1414.3
2016-Aug-22 06:33N 38°34' E 015°31'1414.4
2016-Aug-22 05:33N 38°22' E 015°40'1312.9
2016-Aug-22 04:33N 38°09' E 015°37'1413.7
2016-Aug-22 03:33N 37°55' E 015°40'1312.6
2016-Aug-22 02:32N 37°49' E 015°54'1313.4
2016-Aug-22 01:33N 37°45' E 016°10'2613.0
2016-Aug-21 23:33N 37°37' E 016°41'1612.7
2016-Aug-21 22:20N 37°32' E 016°60'60013.7
2016-Aug-20 02:33N 34°23' E 028°43'1414.0
2016-Aug-20 01:33N 34°16' E 028°58'1413.7
2016-Aug-20 00:33N 34°10' E 029°13'1413.7
2016-Aug-19 23:33N 34°04' E 029°27'1413.9
2016-Aug-19 22:33N 33°58' E 029°42'1614.0
2016-Aug-19 21:24N 33°50' E 029°60'1314.1
2016-Aug-19 20:30N 33°44' E 030°13'1414.2
2016-Aug-19 19:33N 33°38' E 030°28'1514.4
2016-Aug-19 18:29N 33°31' E 030°44'1314.3
2016-Aug-19 17:33N 33°25' E 030°59'1514.4
2016-Aug-19 16:32N 33°19' E 031°14'1414.4
2016-Aug-19 15:33N 33°12' E 031°29'1414.2
2016-Aug-19 14:33N 33°05' E 031°44'1614.4
2016-Aug-19 13:28N 32°58' E 032°00'1314.6
2016-Aug-19 12:33N 32°52' E 032°14'1514.5
2016-Aug-19 11:33N 32°46' E 032°30'1514.7
2016-Aug-19 10:33N 32°39' E 032°45'1514.8
2016-Aug-19 09:33N 32°32' E 033°01'1515.1
2016-Aug-19 08:33N 32°25' E 033°17'1515.1
2016-Aug-19 07:33N 32°18' E 033°33'1515.1
2016-Aug-19 06:33N 32°10' E 033°47'1514.7
2016-Aug-19 05:34N 32°06' E 034°04'26 0.9
2016-Aug-17 23:31N 32°03' E 034°34'1010.9
2016-Aug-17 22:34N 32°13' E 034°37'1312.8
2016-Aug-17 21:33N 32°26' E 034°42'1515.0
2016-Aug-17 20:34N 32°40' E 034°46'1413.2
2016-Aug-17 19:32N 32°52' E 034°53'8 7.7
2016-Aug-17 18:33N 32°49' E 035°01'0 0.0
2016-Aug-17 17:33N 32°49' E 035°01'0 0.0
2016-Aug-17 16:33N 32°49' E 035°01'0 0.0
2016-Aug-17 15:33N 32°49' E 035°01'0 0.0
2016-Aug-17 14:33N 32°49' E 035°01'0 0.0
2016-Aug-17 13:33N 32°49' E 035°01'0 0.0
2016-Aug-17 12:33N 32°49' E 035°01'0 0.0
2016-Aug-17 11:33N 32°49' E 035°01'0 0.0
2016-Aug-17 10:33N 32°49' E 035°01'0 0.0
2016-Aug-17 09:30N 32°49' E 035°01'0 0.0
2016-Aug-17 08:33N 32°49' E 035°01'0 0.0
2016-Aug-17 07:33N 32°49' E 035°01'0 0.0
2016-Aug-17 06:33N 32°49' E 035°01'0 0.0
2016-Aug-17 05:33N 32°49' E 035°01'  
Track history (hours):
 
Tides and Currents Weather Stations Pressure Air Temp Water Temp Dewpoint Dewpoint Depression Visibility Wind Speed Wind Dir Waves Ship Positions

Fortunate

Last reported at 2016-Aug-27 04:33 UTC. Time now 2016-Aug-27 06:25 UTC.
Position N 36°26' W 002°16'.

Length 275 m; draft 11.7 m.

Type: Ship (hazmat cat A). MMSI: 356708000.

Date/timePositionNaut miles runAvg speedWind from/ knotsBaromVisibWave heightAir tempDewpointWater temp
2016-Aug-27 04:33N 36°26' W 002°16'2017.9
2016-Aug-27 03:24N 36°37' W 001°55'3317.6
2016-Aug-27 01:33N 36°59' W 001°24'3817.6
2016-Aug-26 23:25N 37°23' W 000°49'1517.7
2016-Aug-26 22:33N 37°34' W 000°35'5617.1
2016-Aug-26 19:18N 38°20' E 000°04'1316.9
2016-Aug-26 18:33N 38°31' E 000°13'1717.1
2016-Aug-26 17:33N 38°45' E 000°25'1716.8
2016-Aug-26 16:31N 38°59' E 000°11'3216.3
2016-Aug-26 14:33N 39°24' W 000°14'5 4.7
2016-Aug-26 13:32N 39°26' W 000°19'0 0.0
2016-Aug-26 12:32N 39°26' W 000°19'0 0.0
2016-Aug-26 11:32N 39°26' W 000°19'0 0.0
2016-Aug-26 10:32N 39°26' W 000°19'0 0.0
2016-Aug-26 09:32N 39°26' W 000°19'0 0.0
2016-Aug-26 08:32N 39°26' W 000°19'0 0.0
2016-Aug-26 07:32N 39°26' W 000°19'0 0.0
2016-Aug-26 06:32N 39°26' W 000°19'0 0.0
2016-Aug-26 03:26N 39°26' W 000°19'0 0.0
2016-Aug-26 02:32N 39°26' W 000°19'0 0.0
2016-Aug-26 01:32N 39°26' W 000°19'0 0.0
2016-Aug-26 00:32N 39°26' W 000°19'0 0.0
2016-Aug-25 23:29N 39°26' W 000°19'0 0.0
2016-Aug-25 22:14N 39°26' W 000°19'0 0.0
2016-Aug-25 20:32N 39°26' W 000°19'0 0.0
2016-Aug-25 17:32N 39°26' W 000°19'0 0.0
2016-Aug-25 16:29N 39°26' W 000°19'0 0.0
2016-Aug-25 15:32N 39°26' W 000°19'0 0.1
2016-Aug-25 14:33N 39°26' W 000°19'5 5.1
2016-Aug-25 13:33N 39°24' W 000°13'5317.6
2016-Aug-25 10:32N 39°17' E 000°55'1717.7
2016-Aug-25 09:33N 39°15' E 001°17'1817.7
2016-Aug-25 08:33N 39°12' E 001°40'1818.1
2016-Aug-25 07:33N 39°10' E 002°03'1818.0
2016-Aug-25 06:33N 39°07' E 002°26'3617.8
2016-Aug-25 04:33N 39°03' E 003°11'1818.0
2016-Aug-25 03:33N 39°01' E 003°34'1817.9
2016-Aug-25 02:33N 38°59' E 003°57'1818.1
2016-Aug-25 01:33N 38°57' E 004°20'2017.8
2016-Aug-25 00:27N 38°55' E 004°46'1717.9
2016-Aug-24 23:30N 38°54' E 005°07'1617.5
2016-Aug-24 22:33N 38°52' E 005°28'16017.7
2016-Aug-24 13:29N 38°47' E 008°54'1718.2
2016-Aug-24 12:33N 38°50' E 009°15'24013.4
2016-Aug-23 18:33N 40°34' E 013°57'1817.7
2016-Aug-23 17:34N 40°45' E 014°15'6 5.6
2016-Aug-23 16:32N 40°50' E 014°17'0 0.0
2016-Aug-23 12:23N 40°50' E 014°17'0 0.0
2016-Aug-23 07:23N 40°50' E 014°17'0 0.0
2016-Aug-23 05:29N 40°50' E 014°17'0 0.0
2016-Aug-23 03:17N 40°50' E 014°17'0 0.0
2016-Aug-23 01:17N 40°50' E 014°17'0 0.0
2016-Aug-23 00:29N 40°50' E 014°17'0 0.0
2016-Aug-22 23:29N 40°50' E 014°17'0 0.0
2016-Aug-22 22:29N 40°50' E 014°17'0 0.0
2016-Aug-22 21:29N 40°50' E 014°17'0 0.0
2016-Aug-22 20:10N 40°50' E 014°17'2 2.8
2016-Aug-22 19:34N 40°49' E 014°18'2 1.9
2016-Aug-22 18:33N 40°47' E 014°17'3 2.6
2016-Aug-22 17:34N 40°45' E 014°15'1110.8
2016-Aug-22 16:34N 40°35' E 014°08'1212.4
2016-Aug-22 15:34N 40°24' E 014°13'10013.7
2016-Aug-22 08:17N 38°56' E 015°16'1114.5
2016-Aug-22 07:32N 38°47' E 015°23'1414.3
2016-Aug-22 06:33N 38°34' E 015°31'1414.4
2016-Aug-22 05:33N 38°22' E 015°40'1312.9
2016-Aug-22 04:33N 38°09' E 015°37'1413.7
2016-Aug-22 03:33N 37°55' E 015°40'1312.6
2016-Aug-22 02:32N 37°49' E 015°54'1313.4
2016-Aug-22 01:33N 37°45' E 016°10'2613.0
2016-Aug-21 23:33N 37°37' E 016°41'1612.7
2016-Aug-21 22:20N 37°32' E 016°60'60013.7
2016-Aug-20 02:33N 34°23' E 028°43'1414.0
2016-Aug-20 01:33N 34°16' E 028°58'1413.7
2016-Aug-20 00:33N 34°10' E 029°13'1413.7
2016-Aug-19 23:33N 34°04' E 029°27'1413.9
2016-Aug-19 22:33N 33°58' E 029°42'1614.0
2016-Aug-19 21:24N 33°50' E 029°60'1314.1
2016-Aug-19 20:30N 33°44' E 030°13'1414.2
2016-Aug-19 19:33N 33°38' E 030°28'1514.4
2016-Aug-19 18:29N 33°31' E 030°44'1314.3
2016-Aug-19 17:33N 33°25' E 030°59'1514.4
2016-Aug-19 16:32N 33°19' E 031°14'1414.4
2016-Aug-19 15:33N 33°12' E 031°29'1414.2
2016-Aug-19 14:33N 33°05' E 031°44'1614.4
2016-Aug-19 13:28N 32°58' E 032°00'1314.6
2016-Aug-19 12:33N 32°52' E 032°14'1514.5
2016-Aug-19 11:33N 32°46' E 032°30'1514.7
2016-Aug-19 10:33N 32°39' E 032°45'1514.8
2016-Aug-19 09:33N 32°32' E 033°01'1515.1
2016-Aug-19 08:33N 32°25' E 033°17'1515.1
2016-Aug-19 07:33N 32°18' E 033°33'1515.1
2016-Aug-19 06:33N 32°10' E 033°47'1514.7
2016-Aug-19 05:34N 32°06' E 034°04'26 0.9
2016-Aug-17 23:31N 32°03' E 034°34'1010.9
2016-Aug-17 22:34N 32°13' E 034°37'1312.8
2016-Aug-17 21:33N 32°26' E 034°42'1515.0
2016-Aug-17 20:34N 32°40' E 034°46'1413.2
2016-Aug-17 19:32N 32°52' E 034°53'8 7.7
2016-Aug-17 18:33N 32°49' E 035°01'0 0.0
2016-Aug-17 17:33N 32°49' E 035°01'0 0.0
2016-Aug-17 16:33N 32°49' E 035°01'0 0.0
2016-Aug-17 15:33N 32°49' E 035°01'0 0.0
2016-Aug-17 14:33N 32°49' E 035°01'0 0.0
2016-Aug-17 13:33N 32°49' E 035°01'0 0.0
2016-Aug-17 12:33N 32°49' E 035°01'0 0.0
2016-Aug-17 11:33N 32°49' E 035°01'0 0.0
2016-Aug-17 10:33N 32°49' E 035°01'0 0.0
2016-Aug-17 09:30N 32°49' E 035°01'0 0.0
2016-Aug-17 08:33N 32°49' E 035°01'0 0.0
2016-Aug-17 07:33N 32°49' E 035°01'0 0.0
2016-Aug-17 06:33N 32°49' E 035°01'0 0.0
2016-Aug-17 05:33N 32°49' E 035°01'  

Dump ship's entire track history